Latest Coastal Weather Observations for Portland Airport

IDV60701

Issued at 9:55 pm EST Tuesday 30 September 2014 (issued every 10 minutes, with the page automatically refreshed every 10 minutes)

About coastal observations | Map of coastal stations | Coastal observations for VIC | Marine services | Other Formats
Station Details ID: 090171 Name: CASHMORE AIRPORT Lat: -38.31 Lon: 141.47 Height: 80.9 m
Data from the previous 72 hours. | See also: Recent months at Portland Airport
Date/Time
EST
Temp

°C
Wind Pressure Rain
since 9am
mm
Weather Cloud Vis
km
Sea
Height
m
Swell
Dir
 
Speed
knots
Gust
knots
hPa Trend Height
m
Period
s
Dir
30/09:46pm 8.2 WSW 15 25 1016.4 - - - - 10 - - - -
30/09:30pm 8.5 WSW 19 30 1016.1 - - - - 5 - - - -
30/09:29pm 8.5 WSW 19 30 1016.1 - - - - 6 - - - -
30/09:01pm 9.9 WSW 21 38 1015.2 - - - - 10 - - - -
30/09:00pm 9.9 WSW 20 29 1015.2 - 0.4 - - 10 - - - -
30/08:34pm 9.2 WSW 20 30 1014.9 - - - - 10 - - - -
30/08:30pm 9.3 WSW 21 30 1014.8 - - - - 10 - - - -
30/08:06pm 9.0 WSW 20 30 1014.4 - - - - 7 - - - -
30/08:00pm 9.6 W 20 29 1014.3 - - - - 9 - - - -
30/07:39pm 10.2 W 20 31 1013.4 - - - - 10 - - - -
30/07:30pm 10.0 W 21 28 1013.3 - - - Partly cloudy 10 - - - -
30/07:08pm 10.1 W 21 31 1012.8 - - - Partly cloudy 10 - - - -
30/07:00pm 10.0 W 22 30 1012.7 - - - Partly cloudy 10 - - - -
30/06:34pm 9.3 W 16 28 1012.4 - - - - 10 - - - -
30/06:30pm 9.1 W 16 25 1012.5 - - - - 10 - - - -
30/06:01pm 9.2 WSW 19 29 1012.2 - - - - 10 - - - -
30/06:00pm 9.2 WSW 20 29 1012.2 - - Recent precip. - 10 - - - -
30/05:58pm 9.0 WSW 20 31 1012.2 - - - - 10 - - - -
30/05:44pm 8.6 W 20 34 1012.1 - - - - 6 - - - -
30/05:30pm 10.6 W 20 30 1011.2 - - - - 10 - - - -
30/05:08pm 11.4 W 19 29 1011.1 - - - - 10 - - - -
30/05:00pm 11.1 W 21 30 1010.9 - - - - 10 - - - -
30/04:30pm 11.3 W 25 36 1010.3 - - - - 10 - - - -
30/04:00pm 11.8 W 23 35 1009.7 - - - - 10 - - - -
30/03:30pm 11.7 W 27 39 1009.1 - - - - 10 - - - -
30/03:17pm 11.8 WSW 24 35 1008.8 - - - - 10 - - - -
30/03:00pm 12.0 W 24 33 1008.3 - - - - 10 - - - -
30/02:58pm 12.2 W 23 33 1008.3 - - - - 10 - - - -
30/02:30pm 12.4 WSW 21 29 1007.8 - 10.2 - - 10 - - - -
30/02:08pm 12.4 WSW 20 30 1007.6 - 10.2 - - 10 - - - -
30/02:00pm 12.9 W 23 30 1007.5 - 10.2 - - 10 - - - -
30/01:32pm 11.5 W 23 34 1006.7 - 10.2 - - 10 - - - -
30/01:30pm 11.5 W 21 29 1006.6 - 10.2 - - 10 - - - -
30/01:12pm 11.2 W 19 29 1006.5 - 10.2 - - 10 - - - -
30/01:06pm 10.5 W 19 25 1006.6 - 10.2 - - 10 - - - -
30/01:02pm 9.9 W 20 30 1006.6 - 10.2 - - 10 - - - -
30/01:00pm 9.9 W 21 30 1006.7 - 10.2 - - 9 - - - -
30/12:30pm 9.8 WSW 23 37 1005.8 - 9.6 - - 4 - - - -
30/12:25pm 9.9 WSW 27 37 1005.3 - 9.6 - - 3 - - - -
30/12:24pm 10.1 WSW 25 33 1005.3 - 9.6 - - 2 - - - -
30/12:02pm 11.5 W 24 42 1005.0 - 8.4 - - 4 - - - -
30/12:00pm 13.3 WNW 22 34 1004.4 - 8.0 Recent precip. - 10 - - - -
30/11:52am 13.6 WNW 21 35 1004.3 - 8.0 - - 10 - - - -
30/11:40am 12.6 WNW 21 31 1004.5 - 8.0 - - 6 - - - -
30/11:30am 12.2 WNW 21 30 1004.5 - 7.8 - - 8 - - - -
30/11:05am 12.8 WNW 19 38 1004.5 - 6.4 - - 6 - - - -
30/11:00am 13.6 WNW 18 25 1004.3 - 6.4 - - 5 - - - -
30/10:57am 13.7 NW 19 26 1004.2 - 6.4 - - 6 - - - -
30/10:56am 13.9 NW 19 26 1004.2 - 6.4 - - 7 - - - -
30/10:30am 12.2 WNW 17 26 1004.5 - 6.2 - - 3 - - - -
30/10:01am 12.6 WNW 21 31 1005.0 - 4.0 - - 5 - - - -
30/10:00am 12.7 WNW 20 28 1004.9 - 4.0 - - 5 - - - -
30/09:54am 13.4 WNW 15 25 1004.9 - 3.8 - - 2 - - - -
30/09:48am 13.5 W 15 19 1005.1 - 2.8 - - 2 - - - -
30/09:31am 14.2 NW 22 33 1004.6 - 0.0 - - 6 - - - -
30/09:30am 14.3 NW 23 33 1004.6 - 0.0 - - 7 - - - -
30/09:04am 16.5 NW 23 35 1004.5 - 0.0 - - 10 - - - -
30/09:00am 16.8 NW 23 32 1004.5 - 0.0 - - 10 - - - -
30/08:35am 15.5 NW 22 32 1004.8 - 0.0 - - 10 - - - -
30/08:30am 15.2 NW 24 32 1004.9 - 0.0 - - 10 - - - -
30/08:03am 15.2 NW 18 31 1004.9 - 0.0 - - 10 - - - -
30/08:00am 15.1 NW 18 27 1005.0 - 0.0 - - 10 - - - -
30/07:34am 14.5 NW 15 27 1005.1 - 0.0 - - 10 - - - -
30/07:30am 14.4 NW 15 23 1005.2 - 0.0 - - 10 - - - -
30/07:00am 13.7 NW 12 19 1005.7 - 0.0 - - 10 - - - -
30/06:30am 13.1 NNW 12 18 1005.8 - 0.0 - - 10 - - - -
30/06:00am 12.7 NNW 12 18 1005.9 - 0.0 - - 10 - - - -
30/05:30am 12.8 NNW 13 18 1005.9 - 0.0 - - 10 - - - -
30/05:00am 12.5 NNW 15 22 1006.2 - 0.0 - - 10 - - - -
30/04:30am 12.3 NNW 14 20 1006.3 - 0.0 - - 10 - - - -
30/04:00am 12.1 NNW 15 20 1006.7 - 0.0 - - 10 - - - -
30/03:30am 11.9 NNW 13 18 1007.2 - 0.0 - - 10 - - - -
30/03:00am 11.8 NNW 13 20 1007.7 - 0.0 - - 10 - - - -
30/02:30am 11.6 NNW 12 18 1008.1 - 0.0 - - 10 - - - -
30/02:00am 11.0 NNW 11 17 1008.4 - 0.0 - - 10 - - - -
30/01:30am 11.0 NNW 11 17 1008.9 - 0.0 - - 10 - - - -
30/01:00am 11.0 NNW 11 15 1009.3 - 0.0 - - 10 - - - -
30/12:30am 10.9 NNW 9 14 1009.6 - 0.0 - - 10 - - - -
30/12:00am 10.7 N 8 10 1010.0 - 0.0 - - 10 - - - -
 
Date/Time
EST
Temp

°C
Wind Pressure Rain
since 9am
mm
Weather Cloud Vis
km
Sea
Height
m
Swell
Dir
 
Speed
knots
Gust
knots
hPa Trend Height
m
Period
s
Dir
29/11:30pm 12.3 NW 9 15 1010.3 - 0.0 - - 10 - - - -
29/11:00pm 11.7 NW 10 14 1010.7 - 0.0 - - 10 - - - -
29/10:30pm 11.5 NW 9 11 1011.1 - 0.0 - - 10 - - - -
29/10:00pm 12.0 NW 11 14 1011.2 - 0.0 - - 10 - - - -
29/09:30pm 12.3 NW 11 15 1011.5 - 0.0 - - 9 - - - -
29/09:00pm 12.7 NW 11 16 1011.6 - 0.0 - - 10 - - - -
29/08:30pm 13.2 WNW 12 19 1011.6 - 0.0 - - 10 - - - -
29/08:00pm 13.0 WNW 13 18 1011.6 - 0.0 - - 10 - - - -
29/07:30pm 13.2 WNW 12 16 1011.2 - 0.0 - - 10 - - - -
29/07:00pm 13.3 WNW 13 19 1010.9 - 0.0 - - 10 - - - -
29/06:30pm 13.7 WNW 16 21 1010.4 - 0.0 - - 10 - - - -
29/06:00pm 14.1 WNW 16 25 1010.2 - 0.0 - - 10 - - - -
29/05:30pm 14.5 WNW 18 24 1010.0 - 0.0 - - 10 - - - -
29/05:06pm 14.9 WNW 19 29 1009.8 - 0.0 - - 10 - - - -
29/05:00pm 15.0 WNW 19 25 1009.8 - 0.0 - - 10 - - - -
29/04:30pm 15.1 WNW 21 29 1009.9 - 0.0 - - 10 - - - -
29/04:00pm 15.8 WNW 19 25 1010.1 - 0.0 - - 10 - - - -
29/03:30pm 16.2 W 19 24 1010.3 - 0.0 - - 10 - - - -
29/03:00pm 16.0 W 19 27 1010.6 - 0.0 - - 10 - - - -
29/02:30pm 16.6 W 18 24 1010.9 - 0.0 - - 10 - - - -
29/02:00pm 16.4 WNW 15 21 1011.0 - 0.0 - - 10 - - - -
29/01:30pm 16.5 W 16 21 1011.2 - 0.0 - - 10 - - - -
29/01:00pm 16.6 W 16 21 1011.4 - 0.0 - - 10 - - - -
29/12:30pm 16.2 W 17 23 1011.5 - 0.0 - - 10 - - - -
29/12:00pm 16.6 WNW 13 19 1011.6 - 0.0 - - 10 - - - -
29/11:30am 15.4 WNW 15 22 1011.8 - 0.0 - - 10 - - - -
29/11:00am 15.0 WNW 17 24 1012.0 - 0.0 - - 10 - - - -
29/10:30am 15.1 WNW 16 26 1012.1 - 0.0 - - 10 - - - -
29/10:21am 15.4 WNW 16 26 1012.2 - 0.0 - - 10 - - - -
29/10:00am 14.9 WNW 16 21 1012.3 - 0.0 - - 10 - - - -
29/09:30am 14.2 WNW 18 24 1012.5 - 0.0 - - 10 - - - -
29/09:00am 13.8 WNW 15 23 1012.4 - 0.0 - - 10 - - - -
29/08:30am 13.9 WNW 12 21 1012.1 - 0.0 - - 10 - - - -
29/08:00am 12.7 WNW 9 13 1012.1 - 0.0 - - 10 - - - -
29/07:30am 12.0 NW 11 16 1011.8 - 0.0 - - 10 - - - -
29/07:00am 12.6 WNW 11 16 1011.5 - 0.0 - - 10 - - - -
29/06:30am 12.3 W 12 16 1011.1 - 0.0 - - 10 - - - -
29/06:00am 11.9 W 11 15 1010.7 - 0.0 - - 10 - - - -
29/05:30am 12.0 W 14 19 1010.4 - 0.0 - - 10 - - - -
29/05:00am 12.3 W 17 23 1010.1 - 0.0 - - 10 - - - -
29/04:36am 12.4 W 18 29 1009.8 - 0.0 - - 10 - - - -
29/04:30am 12.4 W 18 24 1009.7 - 0.0 - - 10 - - - -
29/04:00am 12.3 W 17 23 1009.2 - 0.0 - - 10 - - - -
29/03:30am 12.7 W 20 27 1009.1 - 0.0 - - 10 - - - -
29/03:00am 12.6 W 18 24 1009.0 - 0.0 - - 10 - - - -
29/02:30am 12.7 W 16 23 1008.9 - 0.0 - - 10 - - - -
29/02:00am 12.7 W 18 25 1009.0 - 0.0 - - 10 - - - -
29/01:30am 12.5 W 17 23 1009.3 - 0.0 - - 10 - - - -
29/01:00am 12.7 WNW 19 26 1009.1 - 0.0 - - 10 - - - -
29/12:39am 13.3 WNW 19 29 1008.5 - 0.0 - - 10 - - - -
29/12:38am 13.2 WNW 20 29 1008.4 - 0.0 - - 10 - - - -
29/12:30am 13.3 WNW 20 29 1008.2 - 0.0 - - 7 - - - -
29/12:29am 13.3 WNW 19 29 1008.2 - 0.0 - - 7 - - - -
29/12:21am 13.7 WNW 18 26 1008.2 - 0.0 - - 6 - - - -
29/12:13am 13.8 WNW 16 26 1008.1 - 0.0 - - 9 - - - -
29/12:00am 13.8 WNW 16 24 1008.2 - 0.0 - - 10 - - - -
 
Date/Time
EST
Temp

°C
Wind Pressure Rain
since 9am
mm
Weather Cloud Vis
km
Sea
Height
m
Swell
Dir
 
Speed
knots
Gust
knots
hPa Trend Height
m
Period
s
Dir
28/11:30pm 13.4 WNW 18 24 1007.9 - 0.0 - - 10 - - - -
28/11:11pm 13.0 WNW 16 26 1007.8 - 0.0 - - 10 - - - -
28/11:00pm 13.1 NW 18 24 1007.9 - 0.0 - - 10 - - - -
28/10:30pm 12.7 NW 16 24 1007.4 - 0.0 - - 10 - - - -
28/10:00pm 12.6 NW 15 21 1007.2 - 0.0 - - 10 - - - -
28/09:30pm 12.8 WNW 16 23 1007.0 - 0.0 - - 10 - - - -
28/09:00pm 12.8 WNW 15 21 1006.7 - 0.0 - - 10 - - - -
28/08:30pm 12.7 NW 13 20 1006.3 - 0.0 - - 10 - - - -
28/08:00pm 13.4 WNW 15 20 1005.9 - 0.0 - - 10 - - - -
28/07:30pm 13.4 WNW 16 21 1005.4 - 0.0 - - 10 - - - -
28/07:00pm 13.4 WNW 15 20 1005.4 - 0.0 - - 10 - - - -
28/06:30pm 13.5 WNW 14 20 1004.9 - 0.0 - - 10 - - - -
28/06:00pm 14.1 W 18 24 1004.7 - 0.0 - - 10 - - - -
28/05:30pm 14.7 W 18 24 1004.6 - 0.0 - - 10 - - - -
28/05:00pm 15.3 W 22 29 1004.4 - 0.0 - - 10 - - - -
28/04:30pm 15.8 W 24 31 1003.8 - 0.0 - - 10 - - - -
28/04:00pm 16.4 W 22 32 1003.4 - 0.0 - - 9 - - - -
28/03:30pm 19.3 WNW 23 33 1002.7 - 0.0 - - 10 - - - -
28/03:00pm 22.6 WNW 25 35 1002.1 - 0.0 - - 10 - - - -
28/02:30pm 24.2 NW 28 43 1001.7 - 0.0 - - 10 - - - -
28/02:24pm 24.3 NW 28 43 1001.5 - 0.0 - - 10 - - - -
28/02:00pm 24.3 NW 21 33 1001.5 - 0.0 - - 10 - - - -
28/01:30pm 24.4 NW 25 37 1001.9 - 0.0 - - 10 - - - -
28/01:00pm 24.3 NW 24 36 1002.3 - 0.0 - - 10 - - - -
28/12:30pm 24.3 NW 21 36 1002.8 - 0.0 - - 10 - - - -
28/12:00pm 23.9 NW 20 35 1003.4 - 0.0 - - 10 - - - -
28/11:30am 24.2 NNW 20 32 1003.7 - 0.0 - - 10 - - - -
28/11:00am 25.3 NNW 21 34 1003.7 - 0.0 - - 10 - - - -
28/10:30am 24.0 NNW 21 35 1003.5 - 0.0 - - 10 - - - -
28/10:00am 24.4 NNW 19 30 1004.1 - 0.0 - - 10 - - - -
28/09:31am 23.5 NNW 21 32 1004.4 - 0.0 - - 10 - - - -
28/09:30am 23.4 NNW 21 30 1004.4 - 0.0 - - 10 - - - -
28/09:00am 23.9 NW 21 32 1004.9 - 0.0 - - 10 - - - -
28/08:48am 24.1 NW 23 33 1004.9 - 0.0 - - 10 - - - -
28/08:30am 23.1 N 20 35 1002.7 - 0.0 - - 10 - - - -
28/08:00am 22.0 N 19 31 1003.0 - 0.0 - - 10 - - - -
28/07:56am 21.9 N 19 31 1003.0 - 0.0 - - 10 - - - -
28/07:30am 20.7 N 17 24 1003.3 - 0.0 - - 10 - - - -
28/07:00am 20.1 N 17 29 1003.6 - 0.0 - - 10 - - - -
28/06:30am 20.3 N 15 25 1004.4 - 0.0 - - 10 - - - -
28/06:07am 19.9 N 15 25 1004.9 - 0.0 - - 10 - - - -
28/06:00am 19.8 N 13 20 1005.0 - 0.0 - - 10 - - - -
28/05:30am 19.0 N 11 17 1005.1 - 0.0 - - 10 - - - -
28/05:00am 19.1 N 11 15 1005.4 - 0.0 - - 10 - - - -
28/04:30am 19.7 N 14 20 1005.5 - 0.0 - - 10 - - - -
28/04:00am 20.1 N 15 24 1005.9 - 0.0 - - 10 - - - -
28/03:30am 20.2 N 14 23 1006.6 - 0.0 - - 10 - - - -
28/03:00am 18.7 N 12 18 1006.8 - 0.0 - - 10 - - - -
28/02:30am 17.1 N 10 13 1007.5 - 0.0 - - 10 - - - -
28/02:00am 17.8 N 11 15 1007.9 - 0.0 - - 10 - - - -
28/01:30am 18.1 N 11 15 1008.6 - 0.0 - - 10 - - - -
28/01:00am 18.1 N 10 14 1008.9 - 0.0 - - 10 - - - -
28/12:30am 17.3 N 9 12 1009.4 - 0.0 - - 10 - - - -
28/12:00am 17.2 N 8 11 1009.6 - 0.0 - - 10 - - - -
 
Date/Time
EST
Temp

°C
Wind Pressure Rain
since 9am
mm
Weather Cloud Vis
km
Sea
Height
m
Swell
Dir
 
Speed
knots
Gust
knots
hPa Trend Height
m
Period
s
Dir
27/11:30pm 17.4 N 8 11 1009.9 - 0.0 - - 10 - - - -
27/11:00pm 17.2 N 9 12 1010.5 - 0.0 - - 10 - - - -
27/10:30pm 17.2 N 9 11 1010.9 - 0.0 - - 10 - - - -
27/10:00pm 16.0 N 5 6 1011.3 - 0.0 - - 10 - - - -

Other Formats:

Comma delimited format used in spreadsheet applications
http://www.bom.gov.au/fwo/IDV60701/IDV60701.94828.axf

JavaScript Object Notation format (JSON) in row-major order
http://www.bom.gov.au/fwo/IDV60701/IDV60701.94828.json